Time;durP1;ratioP1;P1;durP2;ratioP2;P2;SDS_P1;SDS_P2;PMS_P1;PMS_P2;Temp;Humidity;BMP_temperature;BMP_pressure;BME280_temperature;BME280_humidity;BME280_pressure;Samples;Min_cycle;Max_cycle;Signal;HPM_P1;HPM_P2
2023/03/05 00:01:25;;;;;;;55.58;27.25;;;;;;;6.85;77.73;93454.16;5064879;28;20078;-75
2023/03/05 00:03:52;;;;;;;54.47;26.40;;;;;;;6.84;77.30;93448.06;5064968;28;20088;-75
2023/03/05 00:06:22;;;;;;;50.50;25.63;;;;;;;6.80;76.93;93444.44;5064758;28;20056;-75
2023/03/05 00:08:48;;;;;;;47.28;22.95;;;;;;;6.71;77.00;93443.59;5064548;28;20071;-75
2023/03/05 00:11:14;;;;;;;47.38;25.90;;;;;;;6.66;77.26;93441.06;5064536;28;20062;-75
2023/03/05 00:13:40;;;;;;;46.45;23.13;;;;;;;6.56;77.10;93442.84;5064582;28;20027;-75
2023/03/05 00:16:09;;;;;;;41.30;20.15;;;;;;;6.55;76.24;93441.25;5064164;28;20096;-76
2023/03/05 00:18:35;;;;;;;46.13;20.75;;;;;;;6.50;76.10;93440.59;5064598;28;20051;-79
2023/03/05 00:21:29;;;;;;;39.85;20.20;;;;;;;6.49;76.16;93434.50;5064595;28;20197;-80
2023/03/05 00:23:56;;;;;;;42.65;19.25;;;;;;;6.51;76.19;93434.19;5064172;28;20048;-80
2023/03/05 00:26:24;;;;;;;42.42;18.65;;;;;;;6.48;75.81;93419.69;5064083;28;20025;-80
2023/03/05 00:28:51;;;;;;;39.50;18.23;;;;;;;6.48;75.49;93426.88;5064238;28;20025;-79
2023/03/05 00:31:18;;;;;;;40.10;18.73;;;;;;;6.52;75.41;93431.25;5064405;28;20024;-79
2023/03/05 00:33:44;;;;;;;42.03;19.13;;;;;;;6.54;76.04;93423.81;5064286;28;20082;-79
2023/03/05 00:36:10;;;;;;;39.47;19.50;;;;;;;6.58;76.23;93424.00;5064253;28;20028;-79
2023/03/05 00:38:36;;;;;;;47.45;21.33;;;;;;;6.63;76.77;93424.69;5063992;28;20041;-79
2023/03/05 00:41:02;;;;;;;52.47;23.80;;;;;;;6.67;77.14;93421.41;5064273;28;20080;-79
2023/03/05 00:43:28;;;;;;;48.80;23.63;;;;;;;6.67;77.00;93422.19;5064167;28;20036;-79
2023/03/05 00:45:53;;;;;;;38.00;18.10;;;;;;;6.61;74.75;93412.81;5063999;28;20059;-79
2023/03/05 00:48:21;;;;;;;44.92;18.77;;;;;;;6.54;74.62;93409.78;5062931;28;20404;-79
2023/03/05 00:50:46;;;;;;;40.42;19.50;;;;;;;6.53;75.32;93411.63;5064145;28;20036;-79
2023/03/05 00:53:12;;;;;;;39.42;17.70;;;;;;;6.48;74.84;93403.81;5063948;28;20044;-79
2023/03/05 00:55:37;;;;;;;35.42;16.90;;;;;;;6.50;74.95;93406.94;5063912;28;20100;-79
2023/03/05 00:58:03;;;;;;;35.40;18.23;;;;;;;6.48;74.61;93398.53;5063866;28;20319;-79
2023/03/05 01:00:28;;;;;;;30.92;16.35;;;;;;;6.42;74.28;93405.00;5063798;28;20025;-79
2023/03/05 01:02:54;;;;;;;30.58;16.90;;;;;;;6.33;74.62;93393.53;5063776;28;20029;-79
2023/03/05 01:05:19;;;;;;;36.42;16.10;;;;;;;6.29;73.52;93392.56;5062570;28;20218;-79
2023/03/05 01:07:45;;;;;;;29.23;13.27;;;;;;;6.09;71.52;93393.81;5063743;28;20092;-79
2023/03/05 01:10:11;;;;;;;38.25;15.40;;;;;;;5.94;72.26;93394.84;5062613;28;20258;-79
2023/03/05 01:12:36;;;;;;;24.02;12.60;;;;;;;5.76;72.27;93384.09;5063692;28;20124;-80
2023/03/05 01:15:05;;;;;;;28.55;12.52;;;;;;;5.66;72.71;93389.56;5063607;28;20020;-80
2023/03/05 01:17:31;;;;;;;27.13;13.15;;;;;;;5.51;72.96;93387.97;5063440;28;20269;-79
2023/03/05 01:19:56;;;;;;;32.85;14.07;;;;;;;5.39;73.97;93380.53;5063462;28;20021;-79
2023/03/05 01:22:22;;;;;;;29.98;13.88;;;;;;;5.34;74.91;93387.75;5063238;28;20029;-79
2023/03/05 01:24:47;;;;;;;35.00;13.52;;;;;;;5.32;74.60;93387.28;5063357;28;20082;-78
2023/03/05 01:27:13;;;;;;;32.15;13.80;;;;;;;5.22;75.04;93381.06;5063329;28;20035;-78
2023/03/05 01:29:38;;;;;;;27.13;12.73;;;;;;;5.23;74.52;93376.56;5062951;28;20035;-78
2023/03/05 01:32:04;;;;;;;28.13;13.18;;;;;;;5.19;74.59;93378.22;5063303;28;20032;-79
2023/03/05 01:34:29;;;;;;;32.30;13.15;;;;;;;5.20;74.58;93371.88;5063294;28;20027;-80
2023/03/05 01:36:54;;;;;;;37.42;14.48;;;;;;;5.22;74.43;93367.88;5062947;28;20024;-80
2023/03/05 01:39:20;;;;;;;30.48;13.40;;;;;;;5.22;74.23;93378.44;5062889;28;20131;-80
2023/03/05 01:41:46;;;;;;;31.90;13.07;;;;;;;5.25;73.90;93371.81;5063308;28;20021;-80
2023/03/05 01:44:23;;;;;;;28.15;14.10;;;;;;;5.22;74.22;93369.72;5063107;28;20079;-80
2023/03/05 01:46:48;;;;;;;32.60;13.88;;;;;;;5.23;74.40;93371.28;5063242;28;20028;-80
2023/03/05 01:49:17;;;;;;;31.15;15.40;;;;;;;5.28;74.16;93368.56;5062720;28;20106;-79
2023/03/05 01:51:48;;;;;;;32.45;13.70;;;;;;;5.31;73.83;93373.28;5062832;28;20312;-80
2023/03/05 01:54:18;;;;;;;34.08;13.25;;;;;;;5.34;73.76;93377.19;5062737;28;20035;-80
2023/03/05 01:56:45;;;;;;;28.98;13.35;;;;;;;5.37;72.80;93382.69;5061895;28;20037;-80
2023/03/05 01:59:12;;;;;;;26.48;12.73;;;;;;;5.35;71.76;93381.38;5062852;28;20214;-79
2023/03/05 02:01:48;;;;;;;24.05;12.50;;;;;;;5.34;71.66;93380.63;5062730;28;20025;-78
2023/03/05 02:04:17;;;;;;;33.72;12.23;;;;;;;5.33;71.84;93376.41;5062874;28;20220;-78
2023/03/05 02:06:44;;;;;;;28.25;12.85;;;;;;;5.31;71.62;93385.69;5062799;28;20024;-78
2023/03/05 02:09:09;;;;;;;25.67;13.68;;;;;;;5.32;72.14;93380.13;5062731;28;20057;-79
2023/03/05 02:11:35;;;;;;;25.45;12.77;;;;;;;5.23;71.99;93374.72;5062638;28;20064;-79
2023/03/05 02:14:02;;;;;;;27.52;11.55;;;;;;;5.22;72.04;93375.00;5062656;28;20021;-79
2023/03/05 02:16:34;;;;;;;30.98;12.80;;;;;;;5.18;71.15;93385.38;5062695;28;20021;-79
2023/03/05 02:19:05;;;;;;;29.85;12.05;;;;;;;5.18;70.41;93374.03;5061567;28;20013;-79
2023/03/05 02:21:45;;;;;;;24.65;11.45;;;;;;;5.16;70.61;93384.09;5063957;28;20339;-79
2023/03/05 02:24:12;;;;;;;28.30;12.95;;;;;;;5.13;70.96;93374.91;5066787;28;20374;-79
2023/03/05 02:26:38;;;;;;;24.42;12.38;;;;;;;5.15;70.09;93379.88;5065525;28;20278;-79
2023/03/05 02:29:06;;;;;;;30.88;12.65;;;;;;;5.17;70.18;93375.09;5066490;28;20047;-79
2023/03/05 02:31:32;;;;;;;31.38;13.10;;;;;;;5.20;70.56;93382.44;5066613;28;20032;-79
2023/03/05 02:33:57;;;;;;;24.13;13.07;;;;;;;5.25;70.48;93379.72;5066382;28;20219;-79
2023/03/05 02:36:23;;;;;;;32.63;12.55;;;;;;;5.22;70.51;93381.06;5066351;28;20086;-79
2023/03/05 02:38:49;;;;;;;28.90;12.25;;;;;;;5.20;70.60;93379.81;5066599;28;20009;-79
2023/03/05 02:41:15;;;;;;;27.65;12.48;;;;;;;5.23;70.50;93380.03;5066484;28;20119;-79
2023/03/05 02:43:40;;;;;;;26.00;12.65;;;;;;;5.14;70.48;93378.31;5066137;28;20051;-79
2023/03/05 02:46:06;;;;;;;24.98;13.63;;;;;;;5.21;70.94;93382.16;5066337;28;20020;-79
2023/03/05 02:48:32;;;;;;;32.15;13.32;;;;;;;5.25;70.60;93382.38;5065961;28;20098;-79
2023/03/05 02:50:58;;;;;;;23.85;11.73;;;;;;;5.19;70.45;93386.97;5066414;28;20064;-79
2023/03/05 02:53:25;;;;;;;26.55;11.73;;;;;;;5.17;70.09;93381.19;5066129;28;20088;-79
2023/03/05 02:55:50;;;;;;;28.75;12.43;;;;;;;5.20;70.45;93398.31;5065056;28;20092;-79
2023/03/05 02:58:16;;;;;;;27.33;12.75;;;;;;;5.15;70.96;93385.16;5065168;28;20017;-79
2023/03/05 03:00:42;;;;;;;29.90;13.30;;;;;;;5.18;70.91;93385.38;5065121;28;20059;-79
2023/03/05 03:03:08;;;;;;;27.80;12.70;;;;;;;5.14;70.78;93388.91;5065541;28;20028;-78
2023/03/05 03:05:35;;;;;;;26.45;13.25;;;;;;;5.13;71.00;93397.88;5066203;28;20035;-79
2023/03/05 03:08:01;;;;;;;30.45;13.75;;;;;;;5.08;71.07;93382.91;5065745;28;20192;-78
2023/03/05 03:10:27;;;;;;;33.83;14.10;;;;;;;5.06;71.53;93386.91;5064683;28;20051;-78
2023/03/05 03:12:52;;;;;;;32.08;15.32;;;;;;;4.94;71.83;93390.78;5065565;28;20020;-78
2023/03/05 03:15:18;;;;;;;32.78;13.23;;;;;;;4.91;72.36;93395.88;5065817;28;20048;-78
2023/03/05 03:17:44;;;;;;;33.28;13.65;;;;;;;4.73;72.70;93390.31;5065639;28;20027;-78
2023/03/05 03:20:15;;;;;;;28.20;12.35;;;;;;;4.63;73.21;93396.53;5065532;28;20045;-78
2023/03/05 03:22:42;;;;;;;30.35;13.55;;;;;;;4.54;73.24;93392.19;5065768;28;20223;-78
2023/03/05 03:25:08;;;;;;;25.88;12.48;;;;;;;4.57;73.71;93392.41;5065456;28;20025;-77
2023/03/05 03:27:34;;;;;;;32.42;13.85;;;;;;;4.51;74.00;93396.19;5065351;28;20028;-78
2023/03/05 03:30:03;;;;;;;34.08;13.35;;;;;;;4.50;74.06;93404.38;5065395;28;20028;-79
2023/03/05 03:32:30;;;;;;;34.55;13.30;;;;;;;4.47;73.93;93395.19;5064890;28;20020;-78
2023/03/05 03:34:55;;;;;;;32.45;13.82;;;;;;;4.46;73.38;93398.91;5064066;28;20044;-78
2023/03/05 03:37:21;;;;;;;26.85;12.52;;;;;;;4.46;72.85;93393.63;5065118;28;20021;-79
2023/03/05 03:39:46;;;;;;;32.30;14.73;;;;;;;4.45;73.52;93394.69;5065194;28;20028;-79
2023/03/05 03:42:11;;;;;;;30.83;14.93;;;;;;;4.33;73.44;93400.38;5065276;28;20243;-79
2023/03/05 03:44:37;;;;;;;28.45;13.40;;;;;;;4.31;72.59;93401.75;5065178;28;20029;-79
2023/03/05 03:47:02;;;;;;;38.80;14.48;;;;;;;4.26;72.88;93409.75;5065007;28;20117;-79
2023/03/05 03:49:28;;;;;;;33.35;13.82;;;;;;;4.22;73.26;93397.13;5064978;28;20035;-78
2023/03/05 03:51:53;;;;;;;36.47;14.73;;;;;;;4.20;72.93;93393.97;5065084;28;20021;-78
2023/03/05 03:54:20;;;;;;;32.88;14.57;;;;;;;4.23;73.40;93403.16;5065083;28;20024;-79
2023/03/05 03:56:46;;;;;;;30.77;13.15;;;;;;;4.21;72.65;93398.19;5065097;28;20025;-79
2023/03/05 03:59:12;;;;;;;33.75;14.25;;;;;;;4.21;73.16;93397.38;5064716;28;20017;-79
2023/03/05 04:01:37;;;;;;;32.72;13.88;;;;;;;4.26;73.08;93404.47;5064844;28;20094;-79
2023/03/05 04:04:03;;;;;;;33.97;15.27;;;;;;;4.22;73.16;93407.66;5064850;28;20319;-80
2023/03/05 04:06:29;;;;;;;36.13;14.68;;;;;;;4.28;72.88;93407.63;5064699;28;20024;-79
2023/03/05 04:08:54;;;;;;;31.45;15.35;;;;;;;4.16;72.73;93398.25;5064548;28;20032;-79
2023/03/05 04:11:20;;;;;;;29.20;15.18;;;;;;;4.18;73.41;93416.44;5064647;28;20029;-79
2023/03/05 04:13:46;;;;;;;33.78;14.25;;;;;;;4.16;73.37;93406.16;5063493;28;20393;-79
2023/03/05 04:16:13;;;;;;;39.53;16.05;;;;;;;4.17;73.30;93413.03;5064611;28;20031;-79
2023/03/05 04:18:38;;;;;;;33.53;14.82;;;;;;;4.16;73.38;93411.44;5064486;28;20021;-79
2023/03/05 04:21:04;;;;;;;32.22;16.08;;;;;;;4.22;73.48;93406.88;5064546;28;20041;-79
2023/03/05 04:23:30;;;;;;;32.70;16.52;;;;;;;4.13;73.11;93409.38;5064508;28;20024;-78
2023/03/05 04:25:55;;;;;;;33.00;15.00;;;;;;;4.11;73.46;93421.25;5064269;28;20028;-79
2023/03/05 04:28:20;;;;;;;32.58;14.75;;;;;;;4.07;73.62;93401.78;5064216;28;20027;-78
2023/03/05 04:30:46;;;;;;;39.33;16.80;;;;;;;4.09;73.71;93411.00;5064373;28;20021;-78
2023/03/05 04:33:11;;;;;;;33.03;16.35;;;;;;;4.12;73.50;93412.28;5064434;28;20021;-78
2023/03/05 04:35:37;;;;;;;41.42;16.35;;;;;;;3.99;73.20;93409.28;5064123;28;20088;-78
2023/03/05 04:38:02;;;;;;;36.60;16.13;;;;;;;3.99;73.03;93414.56;5062968;28;20207;-78
2023/03/05 04:40:28;;;;;;;33.95;15.57;;;;;;;4.01;73.89;93406.38;5063981;28;20036;-78
2023/03/05 04:42:53;;;;;;;38.92;16.40;;;;;;;3.99;73.58;93405.88;5064257;28;20326;-78
2023/03/05 04:45:19;;;;;;;39.67;16.75;;;;;;;3.97;73.73;93406.13;5064264;28;20084;-78
2023/03/05 04:47:44;;;;;;;35.75;14.55;;;;;;;3.98;73.10;93404.28;5064060;28;20036;-77
2023/03/05 04:50:11;;;;;;;32.28;14.85;;;;;;;3.97;73.00;93394.81;5063745;28;20040;-77
2023/03/05 04:52:41;;;;;;;32.53;14.38;;;;;;;3.94;72.52;93395.38;5063881;28;20223;-77
2023/03/05 04:55:08;;;;;;;32.58;14.98;;;;;;;3.90;72.33;93389.09;5063815;28;20029;-78
2023/03/05 04:57:34;;;;;;;32.28;15.07;;;;;;;3.84;72.48;93393.63;5063666;28;20059;-78
2023/03/05 04:59:59;;;;;;;36.20;14.63;;;;;;;3.93;72.60;93391.16;5063656;28;20025;-77
2023/03/05 05:02:25;;;;;;;33.53;14.18;;;;;;;3.88;71.82;93396.50;5063746;28;20049;-77
2023/03/05 05:04:53;;;;;;;27.45;12.35;;;;;;;3.84;72.12;93396.28;5063743;28;20100;-77
2023/03/05 05:07:19;;;;;;;31.67;14.20;;;;;;;3.75;72.11;93403.25;5063614;28;20025;-77
2023/03/05 05:09:45;;;;;;;33.50;15.63;;;;;;;3.87;72.57;93400.19;5063608;28;20033;-77
2023/03/05 05:12:10;;;;;;;30.67;14.50;;;;;;;3.82;72.15;93408.94;5063425;28;20027;-78
2023/03/05 05:14:36;;;;;;;32.10;13.95;;;;;;;3.74;72.13;93399.03;5063606;28;20016;-78
2023/03/05 05:17:05;;;;;;;28.77;13.65;;;;;;;3.81;71.02;93415.31;5062180;28;20330;-78
2023/03/05 05:19:32;;;;;;;27.73;13.30;;;;;;;3.80;71.57;93408.44;5063323;28;20084;-77
2023/03/05 05:21:57;;;;;;;30.95;15.18;;;;;;;3.87;72.42;93411.53;5063164;28;20021;-78
2023/03/05 05:24:23;;;;;;;31.83;13.70;;;;;;;3.87;71.23;93406.25;5063260;28;20207;-79
2023/03/05 05:26:48;;;;;;;32.47;12.85;;;;;;;3.83;70.77;93421.06;5063408;28;20045;-79
2023/03/05 05:29:14;;;;;;;30.17;14.77;;;;;;;3.80;69.77;93419.00;5063151;28;20024;-78
2023/03/05 05:31:39;;;;;;;36.17;13.82;;;;;;;3.87;70.01;93414.16;5063233;28;20028;-79
2023/03/05 05:34:05;;;;;;;30.05;12.52;;;;;;;3.87;69.15;93411.53;5063137;28;20044;-79
2023/03/05 05:36:30;;;;;;;35.70;12.30;;;;;;;3.88;68.96;93407.03;5063192;28;20025;-79
2023/03/05 05:38:56;;;;;;;32.95;11.95;;;;;;;3.91;68.20;93417.00;5063161;28;20055;-79
2023/03/05 05:41:21;;;;;;;28.55;12.07;;;;;;;3.99;67.94;93419.06;5063281;28;20021;-79
2023/03/05 05:43:47;;;;;;;26.92;11.27;;;;;;;3.97;66.55;93410.63;5063077;28;20028;-79
2023/03/05 05:46:16;;;;;;;27.00;12.18;;;;;;;3.92;66.07;93408.81;5062909;28;20064;-79
2023/03/05 05:48:42;;;;;;;21.70;10.13;;;;;;;3.91;66.42;93412.53;5062777;28;20059;-79
2023/03/05 05:51:10;;;;;;;24.77;10.70;;;;;;;3.99;65.88;93413.78;5062928;28;20374;-79
2023/03/05 05:53:36;;;;;;;24.15;10.77;;;;;;;4.07;65.52;93413.16;5062945;28;20024;-77
2023/03/05 05:56:07;;;;;;;25.05;11.73;;;;;;;4.10;65.40;93404.66;5062443;28;20096;-77
2023/03/05 05:58:33;;;;;;;21.45;9.38;;;;;;;4.11;63.86;93422.06;5062849;28;20091;-77
2023/03/05 06:00:58;;;;;;;22.08;9.95;;;;;;;4.01;63.18;93422.97;5062650;28;20044;-78
2023/03/05 06:03:24;;;;;;;29.27;9.27;;;;;;;4.06;63.72;93435.31;5062806;28;20021;-79
2023/03/05 06:05:50;;;;;;;29.15;10.88;;;;;;;4.04;63.29;93437.44;5062603;28;20039;-79
2023/03/05 06:08:16;;;;;;;25.15;9.55;;;;;;;4.07;62.92;93431.59;5062867;28;20095;-79
2023/03/05 06:10:41;;;;;;;21.10;9.60;;;;;;;4.16;63.98;93432.53;5062732;28;20052;-77
2023/03/05 06:13:07;;;;;;;24.05;9.63;;;;;;;4.17;63.62;93439.41;5062584;28;20040;-77
2023/03/05 06:15:32;;;;;;;22.95;9.43;;;;;;;4.34;62.06;93430.22;5062472;28;20096;-77
2023/03/05 06:17:59;;;;;;;20.40;9.55;;;;;;;4.39;63.43;93440.69;5062645;28;20024;-77
2023/03/05 06:20:25;;;;;;;20.05;9.82;;;;;;;4.44;62.24;93435.38;5062552;28;20013;-77
2023/03/05 06:22:50;;;;;;;23.88;10.82;;;;;;;4.54;62.46;93431.78;5062388;28;20016;-77
2023/03/05 06:25:15;;;;;;;26.02;10.32;;;;;;;4.58;60.88;93436.22;5062759;28;20334;-77
2023/03/05 06:27:41;;;;;;;24.17;9.82;;;;;;;4.52;60.83;93447.13;5062550;28;20092;-79
2023/03/05 06:30:09;;;;;;;20.00;9.55;;;;;;;4.52;60.63;93441.84;5062373;28;20025;-79
2023/03/05 06:32:34;;;;;;;28.85;9.65;;;;;;;4.49;59.78;93439.78;5062375;28;20023;-79
2023/03/05 06:35:00;;;;;;;23.60;9.40;;;;;;;4.40;59.64;93447.56;5062465;28;20215;-79
2023/03/05 06:37:25;;;;;;;22.83;9.88;;;;;;;4.53;60.13;93448.69;5062260;28;20365;-78
2023/03/05 06:39:50;;;;;;;23.65;10.20;;;;;;;4.60;58.93;93439.34;5062477;28;20020;-79
2023/03/05 06:42:19;;;;;;;23.60;11.02;;;;;;;4.60;58.40;93444.63;5062475;28;20206;-78
2023/03/05 06:44:44;;;;;;;22.30;9.77;;;;;;;4.64;58.99;93439.59;5062447;28;20096;-78
2023/03/05 06:47:10;;;;;;;22.30;8.88;;;;;;;4.60;57.51;93434.09;5062060;28;20021;-78
2023/03/05 06:49:39;;;;;;;22.95;9.52;;;;;;;4.68;58.84;93439.78;5062131;28;20028;-78
2023/03/05 06:52:05;;;;;;;19.73;9.15;;;;;;;4.71;57.96;93444.50;5062339;28;20028;-78
2023/03/05 06:54:31;;;;;;;21.92;8.88;;;;;;;4.77;57.67;93438.06;5062253;28;20052;-78
2023/03/05 06:56:57;;;;;;;23.67;9.35;;;;;;;4.82;56.83;93444.06;5062341;28;20033;-78
2023/03/05 06:59:23;;;;;;;20.02;9.80;;;;;;;4.86;56.91;93452.19;5062037;28;20040;-78
2023/03/05 07:01:48;;;;;;;25.42;9.85;;;;;;;5.01;58.17;93448.53;5062168;28;20025;-78
2023/03/05 07:04:14;;;;;;;20.75;9.88;;;;;;;5.07;56.24;93452.69;5062051;28;20362;-78
2023/03/05 07:06:41;;;;;;;22.05;10.50;;;;;;;5.09;54.92;93439.97;5062288;28;20028;-78
2023/03/05 07:09:09;;;;;;;24.90;10.68;;;;;;;5.05;55.48;93440.81;5064198;28;20039;-78
2023/03/05 07:11:35;;;;;;;25.42;11.13;;;;;;;5.00;54.85;93447.75;5065703;28;20052;-79
2023/03/05 07:14:01;;;;;;;27.42;11.00;;;;;;;5.08;55.49;93445.53;5065731;28;20032;-78
2023/03/05 07:16:32;;;;;;;26.40;10.60;;;;;;;5.08;55.84;93442.88;5065734;28;20039;-78
2023/03/05 07:18:59;;;;;;;29.33;12.57;;;;;;;5.24;56.49;93441.56;5065626;28;20025;-78
2023/03/05 07:21:27;;;;;;;27.48;11.55;;;;;;;5.31;54.88;93462.31;5064532;28;20040;-78
2023/03/05 07:23:54;;;;;;;32.17;13.45;;;;;;;5.28;55.64;93455.00;5065498;28;20028;-78
2023/03/05 07:26:20;;;;;;;27.65;12.82;;;;;;;5.29;56.03;93440.69;5065757;28;20067;-78
2023/03/05 07:28:45;;;;;;;27.38;12.63;;;;;;;5.22;55.69;93441.84;5065543;28;20033;-78
2023/03/05 07:31:14;;;;;;;32.35;13.52;;;;;;;5.25;56.40;93453.72;5065468;28;20036;-78
2023/03/05 07:33:39;;;;;;;35.80;13.43;;;;;;;5.22;56.14;93451.63;5065275;28;20033;-77
2023/03/05 07:36:09;;;;;;;36.67;13.18;;;;;;;5.14;56.72;93439.88;5065444;28;20043;-79
2023/03/05 07:38:35;;;;;;;33.15;13.77;;;;;;;5.20;58.22;93445.88;5065256;28;20021;-78
2023/03/05 07:41:05;;;;;;;36.17;12.80;;;;;;;5.12;57.19;93430.66;5065121;28;20092;-77
2023/03/05 07:43:31;;;;;;;23.65;12.85;;;;;;;5.12;58.10;93434.09;5065141;28;20025;-77
2023/03/05 07:45:57;;;;;;;25.52;13.18;;;;;;;5.08;58.25;93437.59;5064945;28;20028;-75
2023/03/05 07:48:23;;;;;;;31.95;13.32;;;;;;;5.13;58.38;93453.34;5064838;28;20106;-76
2023/03/05 07:50:49;;;;;;;32.30;14.23;;;;;;;5.02;58.90;93440.31;5065296;28;20227;-78
2023/03/05 07:53:15;;;;;;;37.08;14.98;;;;;;;5.04;58.83;93442.66;5065149;28;20047;-77
2023/03/05 07:55:45;;;;;;;32.70;14.40;;;;;;;5.02;59.09;93455.38;5064644;28;20039;-77
2023/03/05 07:58:11;;;;;;;25.38;14.07;;;;;;;4.94;59.83;93440.19;5063669;28;20032;-77
2023/03/05 08:00:37;;;;;;;32.78;14.45;;;;;;;4.95;59.62;93450.47;5064861;28;20021;-78
2023/03/05 08:03:03;;;;;;;38.60;14.82;;;;;;;5.09;60.14;93442.59;5064629;28;20268;-78
2023/03/05 08:05:28;;;;;;;34.78;16.02;;;;;;;5.21;60.14;93452.69;5064670;28;20032;-78
2023/03/05 08:07:54;;;;;;;32.33;14.98;;;;;;;5.17;59.04;93455.16;5064793;28;20025;-78
2023/03/05 08:10:19;;;;;;;27.52;14.65;;;;;;;5.36;58.96;93447.19;5063469;28;20017;-78
2023/03/05 08:12:45;;;;;;;29.98;15.70;;;;;;;5.46;58.06;93454.16;5064667;28;20025;-78
2023/03/05 08:15:11;;;;;;;33.22;15.45;;;;;;;5.51;59.93;93466.50;5064575;28;20327;-77
2023/03/05 08:17:36;;;;;;;38.88;15.90;;;;;;;5.68;59.91;93458.81;5064554;28;20341;-77
2023/03/05 08:20:04;;;;;;;36.15;16.20;;;;;;;5.81;58.33;93457.25;5064165;28;20017;-76
2023/03/05 08:22:33;;;;;;;41.10;16.35;;;;;;;5.80;59.14;93448.53;5063448;28;20028;-76
2023/03/05 08:24:59;;;;;;;35.30;16.90;;;;;;;6.03;59.71;93446.81;5064390;28;20040;-76
2023/03/05 08:27:24;;;;;;;37.58;16.35;;;;;;;6.23;58.60;93450.91;5064333;28;20051;-76
2023/03/05 08:29:50;;;;;;;34.72;15.40;;;;;;;6.39;56.38;93447.94;5064519;28;20028;-76
2023/03/05 08:32:15;;;;;;;36.90;15.23;;;;;;;6.42;56.45;93448.16;5064537;28;20029;-76
2023/03/05 08:34:41;;;;;;;35.47;15.10;;;;;;;6.46;55.94;93445.69;5064385;28;20036;-75
2023/03/05 08:37:08;;;;;;;33.00;14.48;;;;;;;6.37;56.70;93450.09;5064287;28;20088;-75
2023/03/05 08:39:34;;;;;;;31.83;15.73;;;;;;;6.33;56.46;93439.34;5063927;28;20021;-75
2023/03/05 08:41:59;;;;;;;37.78;16.55;;;;;;;6.38;57.92;93436.59;5064241;28;20131;-75
2023/03/05 08:44:24;;;;;;;36.15;15.85;;;;;;;6.38;56.11;93433.16;5064233;28;20090;-75
2023/03/05 08:46:50;;;;;;;36.67;15.35;;;;;;;6.31;56.43;93436.22;5063982;28;20029;-75
2023/03/05 08:49:15;;;;;;;30.73;14.55;;;;;;;6.34;55.48;93448.84;5063883;28;20045;-76
2023/03/05 08:51:41;;;;;;;29.02;14.40;;;;;;;6.26;54.59;93436.31;5064023;28;20204;-75
2023/03/05 08:54:07;;;;;;;30.67;15.60;;;;;;;6.20;54.94;93430.31;5063999;28;20346;-76
2023/03/05 08:56:35;;;;;;;36.25;16.10;;;;;;;6.37;55.27;93431.56;5063953;28;20036;-76
2023/03/05 08:59:02;;;;;;;31.52;13.48;;;;;;;6.43;52.21;93420.59;5064027;28;20039;-75
2023/03/05 09:01:30;;;;;;;27.45;13.40;;;;;;;6.51;53.30;93419.09;5063625;28;20310;-75
2023/03/05 09:03:56;;;;;;;31.42;14.52;;;;;;;6.49;52.22;93410.66;5062624;28;20029;-76
2023/03/05 09:06:21;;;;;;;33.78;15.70;;;;;;;6.47;51.35;93415.47;5063761;28;20032;-74
2023/03/05 09:08:47;;;;;;;32.42;14.88;;;;;;;6.41;50.54;93411.38;5062486;28;20354;-74
2023/03/05 09:11:12;;;;;;;35.97;14.52;;;;;;;6.49;52.98;93413.31;5063454;28;20024;-75
2023/03/05 09:13:38;;;;;;;26.63;13.10;;;;;;;6.45;51.27;93411.56;5063589;28;20315;-74
2023/03/05 09:16:10;;;;;;;36.55;15.77;;;;;;;6.48;52.53;93409.13;5063607;28;20056;-74
2023/03/05 09:18:35;;;;;;;30.70;14.48;;;;;;;6.37;49.91;93408.56;5063394;28;20021;-80
2023/03/05 09:21:14;;;;;;;27.85;13.80;;;;;;;6.22;51.80;93408.88;5063160;28;20231;-78
2023/03/05 09:23:41;;;;;;;34.65;13.50;;;;;;;6.28;51.20;93405.03;5063157;28;20231;-79
2023/03/05 09:26:08;;;;;;;27.63;12.35;;;;;;;6.39;50.64;93411.69;5063201;28;20024;-78
2023/03/05 09:28:34;;;;;;;28.17;12.90;;;;;;;6.48;50.44;93411.75;5062946;28;20017;-78
2023/03/05 09:31:04;;;;;;;26.45;13.35;;;;;;;6.45;49.95;93408.91;5062336;28;20017;-78
2023/03/05 09:33:31;;;;;;;25.13;13.07;;;;;;;6.56;49.61;93402.34;5063154;28;20091;-78
2023/03/05 09:35:57;;;;;;;24.10;12.35;;;;;;;6.60;48.60;93405.94;5063152;28;20048;-78
2023/03/05 09:38:23;;;;;;;27.27;12.80;;;;;;;6.63;49.82;93398.19;5063124;28;20059;-77
2023/03/05 09:41:06;;;;;;;25.50;12.95;;;;;;;6.68;49.62;93393.88;5063050;28;20311;-78
2023/03/05 09:43:50;;;;;;;31.83;13.80;;;;;;;6.69;49.05;93384.81;5062940;28;20070;-78
2023/03/05 09:46:48;;;;;;;36.50;13.23;;;;;;;6.76;48.48;93378.03;5063034;28;20025;-78
2023/03/05 09:49:42;;;;;;;28.05;13.23;;;;;;;6.89;48.13;93388.88;5060087;28;20068;-78
2023/03/05 09:52:48;;;;;;;27.10;13.00;;;;;;;6.95;49.25;93393.75;5062864;28;20049;-78
2023/03/05 09:55:21;;;;;;;27.42;14.18;;;;;;;6.67;49.09;93379.06;5062539;28;20208;-77
2023/03/05 09:57:54;;;;;;;40.28;14.73;;;;;;;6.56;50.09;93383.81;5063005;28;20245;-78
2023/03/05 10:00:42;;;;;;;31.80;13.35;;;;;;;6.67;50.76;93373.75;5062903;28;20032;-77
2023/03/05 10:03:20;;;;;;;32.08;13.52;;;;;;;6.77;49.69;93363.69;5062727;28;20354;-77
2023/03/05 10:06:02;;;;;;;27.23;12.48;;;;;;;6.92;48.62;93364.41;5062778;28;20043;-77
2023/03/05 10:08:51;;;;;;;;;;;;;;;7.00;48.12;93377.75;5063090;28;20100;-77
2023/03/05 10:11:39;;;;;;;28.05;12.93;;;;;;;7.10;48.24;93370.63;5071051;28;19904;-78
2023/03/05 10:14:12;;;;;;;23.40;12.38;;;;;;;7.20;47.29;93368.50;5062473;28;20319;-77
2023/03/05 10:17:11;;;;;;;26.73;13.00;;;;;;;7.32;46.97;93367.16;5061473;28;20024;-76
2023/03/05 10:19:48;;;;;;;30.00;14.35;;;;;;;7.26;47.29;93342.66;5062543;28;20032;-77
2023/03/05 10:22:17;;;;;;;24.52;11.93;;;;;;;7.54;46.26;93361.81;5062448;28;20070;-79
2023/03/05 10:25:27;;;;;;;27.33;12.25;;;;;;;7.61;45.99;93351.56;5062888;28;20258;-79
2023/03/05 10:28:41;;;;;;;20.70;10.82;;;;;;;7.67;45.37;93349.53;5039789;28;20055;-78
2023/03/05 10:31:35;;;;;;;26.45;11.90;;;;;;;7.65;44.86;93343.75;5052246;28;20331;-77
2023/03/05 10:34:34;;;;;;;23.23;11.82;;;;;;;7.73;44.29;93332.38;5062483;28;20021;-80
2023/03/05 10:37:15;;;;;;;19.58;10.20;;;;;;;7.68;44.51;93327.22;5061286;28;20237;-75
2023/03/05 10:40:09;;;;;;;20.50;10.68;;;;;;;7.68;44.78;93313.97;5062197;28;20031;-75
2023/03/05 10:42:52;;;;;;;20.30;10.80;;;;;;;7.68;45.02;93318.50;5054468;28;20231;-75
2023/03/05 10:45:27;;;;;;;21.67;10.50;;;;;;;7.83;43.96;93310.88;5066071;28;20035;-75
2023/03/05 10:48:10;;;;;;;18.20;9.55;;;;;;;7.75;44.09;93306.31;5064912;28;20052;-78
2023/03/05 10:50:49;;;;;;;20.67;9.68;;;;;;;7.65;44.57;93311.91;5066225;28;20029;-79
2023/03/05 10:53:31;;;;;;;18.48;9.48;;;;;;;7.70;44.64;93306.47;5066228;28;20021;-79
2023/03/05 10:56:01;;;;;;;20.63;11.05;;;;;;;7.71;46.17;93299.31;5065965;28;20315;-79
2023/03/05 10:58:26;;;;;;;23.73;11.93;;;;;;;7.76;46.72;93299.94;5065976;28;20025;-80
2023/03/05 11:01:03;;;;;;;20.77;9.38;;;;;;;7.61;45.46;93297.72;5066029;28;20052;-79
2023/03/05 11:03:52;;;;;;;23.48;10.68;;;;;;;7.57;45.83;93289.59;5065891;28;20044;-79
2023/03/05 11:06:30;;;;;;;20.88;10.02;;;;;;;7.52;46.06;93284.44;5066037;28;20032;-79
2023/03/05 11:09:23;;;;;;;19.88;10.05;;;;;;;7.61;46.77;93279.13;5064491;28;20127;-79
2023/03/05 11:12:09;;;;;;;20.42;10.50;;;;;;;7.59;45.17;93298.03;5065620;28;20033;-80
2023/03/05 11:14:38;;;;;;;25.45;10.27;;;;;;;7.67;44.84;93271.81;5065640;28;20031;-78
2023/03/05 11:17:31;;;;;;;21.27;9.77;;;;;;;7.73;44.63;93279.31;5065673;28;20222;-78
2023/03/05 11:20:26;;;;;;;20.08;9.88;;;;;;;7.72;44.68;93266.38;5065692;28;20256;-78
2023/03/05 11:26:27;;;;;;;20.63;9.73;;;;;;;7.91;44.92;93261.56;5063380;28;20029;-80
2023/03/05 11:28:53;;;;;;;20.08;9.10;;;;;;;7.88;44.73;93264.09;5065461;28;20203;-80
2023/03/05 11:31:23;;;;;;;19.52;10.10;;;;;;;7.94;46.01;93260.97;5065560;28;20021;-76
2023/03/05 11:34:03;;;;;;;23.23;10.40;;;;;;;7.95;45.03;93259.09;5065335;28;20032;-77
2023/03/05 11:36:34;;;;;;;20.25;10.65;;;;;;;7.92;45.69;93257.06;5065198;28;20088;-76
2023/03/05 11:39:06;;;;;;;17.98;9.05;;;;;;;7.84;46.02;93253.31;5065249;28;20028;-82